Wednesday, April 23, 2014
18:47 UTC
  |  Log In   |  Register Free
Airport Search:

Furnace Creek Airport
(L06)

Furnace Creek Airport Diagram
No Airport Diagram Available

FAA data valid effective April 3, 2014 until May 29, 2014 (unless otherwise noted).

 
 
 
 
 
 
 
 
 
 
 
 
 
 

Current Aviation Weather for Furnace Creek Airport (L06)

The most recent METAR observation for KINS was updated at: 1758 UTC
METAR Summary (Translated METAR)
KINS
231758Z AUTO 05005KT 10SM FEW095 16/M12 A3002 RMK AO2 SLP138 T01641118 10164 20104 53007
KVGT
(32.3 nm SE from KINS)
231753Z 32024G28KT 10SM CLR 19/M12 A2995 RMK AO2 PK WND 32028/1753 SLP145 T01941117 10200 20156 51014 $
TAF Summary (Translated TAF)
KINS
2315/2417 25009KT 9999 FEW150 QNH2986INS TX24/2323Z TN06/2412Z AMD 231512
KVGT
(32.3 nm SE from KINS)
231720Z 2318/2418 34015G25KT P6SM FEW250 FM232100 04008KT P6SM SCT250 FM240400 33006KT P6SM SCT250 FM241400 VRB05KT P6SM SCT200
  Airport Weather Conditions for L06

Current weather conditions are
not available for L06


The nearest NOAA weather station
is at INS, (58.7 nm NE from L06)
  
 Current Weather at INS
60° F
Fair
Southwest winds at 5.8 mph
INS NOAA Radar

Pressure: 30.01 in
Humidity: 14%
Wind: Southwest at 5.8 MPH (5 KT)
Dew Point: 10.6°F
Visibility: 10.00 mi


Airport Weather Forecast for L06

Translated METAR and TAF for KINS
Translated METAR for KINS (1847 UTC 23 April 2014)
found at http://aviationweather.gov/adds/metars/
 
METAR text: KINS 231758Z AUTO 05005KT 10SM FEW095 16/M12 A3002 RMK AO2 SLP138 T01641118 10164 20104 53007
Conditions at: KINS (INDIAN SPRINGS , NV, US) observed 1758 UTC 23 April 2014
Temperature: 16.4°C (62°F)
Dewpoint: -11.8°C (11°F) [RH = 13%]
Pressure (altimeter): 30.02 inches Hg (1016.7 mb)
[Sea-level pressure: 1013.8 mb]
Winds: from the NE (50 degrees) at 6 MPH (5 knots; 2.6 m/s)
Visibility: 10 or more miles (16+ km)
Ceiling: at least 12,000 feet AGL
Clouds: few clouds at 9500 feet AGL
Weather: automated observation with no human augmentation;
there may or may not be significant weather present at this time
Translated TAF for KINS
Forecast for: KINS (INDIAN SPRINGS , NV, US)
TAF Text: TAF AMD KINS 2315/2417 25009KT 9999 FEW150 QNH2986INS TX24/2323Z TN06/2412Z AMD 231512
Forecast period: 1500 UTC 23 April 2014 to 1700 UTC 24 April 2014
Forecast type: FROM: standard forecast or significant change
Winds: from the WSW (250 degrees) at 10 MPH (9 knots; 4.7 m/s)
Visibility: 6 or more miles (10+ km)
Clouds: few clouds at 15000 feet AGL
Weather: no significant weather forecast for this period

Find All Airport Services Find A Hotel Find A Rental Car Find A Golf Course Find A Restaurant $100 Hamburger



FBO's on the Field
FBO Company Facility Photos Services Transportation Aviation Fuel Prices: Prices include tax
Catering Weather Repair Courtesy Rental Type 100LL JetA JetA+ MOGAS 8087
 
Add another FBO Facility Photos Catering Weather Repair Courtesy Rental Type 100LL JetA JetA+ MOGAS 8087
Services Transportation Aviation Fuel Prices: Prices include tax
There are no FBO's currently reporting fuel at L06. List your FBO now


GlobalAir.com Airport Resource Center model-print
model-print
model-print
model-print